Point Mugu Naval Air Station (Naval Base Ventura Co)
KNTD : now visible

Airfield :











YOU CAN JOIN US ON...

 
LOGIN :

Register | Disclaimer

   EN    FR    IT 

 









Legend :    VFR   Marginal VFR   IFR   Intensive IFR   Very Intensive IFR
Visi :
Ceiling :
>= 8 km
>= 3000ft
5 to 8 km
1000 to 3000 ft
1500m to 5 km
500 to 1000 ft
800 to 1500m
200 to 500 ft
< 800m
< 200 ft
Symbols :   Thunderstorms  Fog  Heavy snow  Heavy precipitations  Wind > 20 kt






- Airport Elevation : 13 ft


KNTD - Point Mugu Naval Air Station (Naval Base Ventura Co)

CURRENT METAR :
  • 181855Z 22009KT 3SM HZ FEW020 21/16 A2980 RMK AO2 SLP093 T02110161 $

EXPIRED METARs :
  • 181755Z 23007KT 4SM HZ SCT019 22/16 A2980 RMK AO2 SLP093 T02170161 10217 20117 53006 $
  • 181655Z 18007KT 3SM HZ FEW019 20/16 A2978 RMK AO2 SLP086 T02000156 $
  • 181555Z 00000KT 3SM HZ FEW014 FEW019 19/15 A2978 RMK AO2 SLP087 T01940150 $
  • 181455Z 00000KT 4SM HZ FEW014 FEW019 18/13 A2978 RMK AO2 SLP087 T01780133 53017 $
  • 181437Z 01004KT 4SM HZ FEW014 FEW019 17/13 A2978 RMK AO2 T01670133 $

TAF TAF KNTD
Valid from the 18 at 15:00 until the 19 at 15:00 UTC


1815/1915 VRB03KT 9999 SKC QNH2974INS
BECMG 1816/1818 24012KT 9999 SKC QNH2972INS
FM190200 14006KT 9999 SCT018 QNH2976INS TX22/1922Z TN14/1912Z FS30215
KZLA FIR / North America



MET'MAP, your aeronautical weather chart ! - Copyright ORBIFLY December 2007 - Disclaimer

ORBIFLY MET'MAP TEAM :

Programming & Development : Alexandra Zaïnal
Original concept : Baudouin d'Aumeries
Technical & hardware support : Manuel Goepfert
Assistance : Marc-Olivier Méhu




SOURCES & CREDITS :

   NOAA       Earth
Advisory